sensor_id;sensor_type;location;lat;lon;timestamp;P1;durP1;ratioP1;P2;durP2;ratioP2
51616;SDS011;37697;52.588;13.394;2023-05-10T00:04:53;5.50;;;3.90;;
51616;SDS011;37697;52.588;13.394;2023-05-10T00:10:19;7.20;;;4.10;;
51616;SDS011;37697;52.588;13.394;2023-05-10T00:15:45;7.50;;;3.90;;
51616;SDS011;37697;52.588;13.394;2023-05-10T00:21:11;7.50;;;4.00;;
51616;SDS011;37697;52.588;13.394;2023-05-10T00:26:37;5.00;;;4.00;;
51616;SDS011;37697;52.588;13.394;2023-05-10T00:32:02;6.10;;;4.00;;
51616;SDS011;37697;52.588;13.394;2023-05-10T00:37:29;5.90;;;4.40;;
51616;SDS011;37697;52.588;13.394;2023-05-10T00:42:54;6.50;;;3.80;;
51616;SDS011;37697;52.588;13.394;2023-05-10T00:48:21;6.10;;;4.80;;
51616;SDS011;37697;52.588;13.394;2023-05-10T00:53:48;6.10;;;4.40;;
51616;SDS011;37697;52.588;13.394;2023-05-10T00:59:15;6.40;;;4.70;;
51616;SDS011;37697;52.588;13.394;2023-05-10T01:04:41;6.60;;;4.40;;
51616;SDS011;37697;52.588;13.394;2023-05-10T01:10:10;6.20;;;3.80;;
51616;SDS011;37697;52.588;13.394;2023-05-10T01:15:36;7.00;;;4.40;;
51616;SDS011;37697;52.588;13.394;2023-05-10T01:21:10;5.70;;;3.90;;
51616;SDS011;37697;52.588;13.394;2023-05-10T01:32:45;8.70;;;4.80;;
51616;SDS011;37697;52.588;13.394;2023-05-10T01:38:21;6.60;;;4.30;;
51616;SDS011;37697;52.588;13.394;2023-05-10T01:43:55;6.40;;;4.70;;
51616;SDS011;37697;52.588;13.394;2023-05-10T01:49:27;5.90;;;4.50;;
51616;SDS011;37697;52.588;13.394;2023-05-10T01:55:01;6.10;;;4.50;;
51616;SDS011;37697;52.588;13.394;2023-05-10T02:00:30;6.30;;;4.40;;
51616;SDS011;37697;52.588;13.394;2023-05-10T02:05:59;7.10;;;4.20;;
51616;SDS011;37697;52.588;13.394;2023-05-10T02:11:25;6.60;;;4.50;;
51616;SDS011;37697;52.588;13.394;2023-05-10T02:16:53;6.80;;;4.60;;
51616;SDS011;37697;52.588;13.394;2023-05-10T02:22:22;9.20;;;5.20;;
51616;SDS011;37697;52.588;13.394;2023-05-10T02:27:50;8.40;;;5.10;;
51616;SDS011;37697;52.588;13.394;2023-05-10T02:33:21;7.70;;;4.90;;
51616;SDS011;37697;52.588;13.394;2023-05-10T02:38:48;6.70;;;4.70;;
51616;SDS011;37697;52.588;13.394;2023-05-10T02:44:17;7.80;;;4.40;;
51616;SDS011;37697;52.588;13.394;2023-05-10T02:49:37;7.70;;;4.90;;
51616;SDS011;37697;52.588;13.394;2023-05-10T02:55:04;9.40;;;4.50;;
51616;SDS011;37697;52.588;13.394;2023-05-10T03:00:34;6.10;;;4.30;;
51616;SDS011;37697;52.588;13.394;2023-05-10T03:06:00;6.20;;;4.30;;
51616;SDS011;37697;52.588;13.394;2023-05-10T03:11:32;6.90;;;4.40;;
51616;SDS011;37697;52.588;13.394;2023-05-10T03:17:09;7.40;;;4.50;;
51616;SDS011;37697;52.588;13.394;2023-05-10T03:22:51;6.60;;;3.90;;
51616;SDS011;37697;52.588;13.394;2023-05-10T03:28:20;7.00;;;4.10;;
51616;SDS011;37697;52.588;13.394;2023-05-10T03:33:49;7.70;;;4.20;;
51616;SDS011;37697;52.588;13.394;2023-05-10T03:39:16;7.60;;;4.60;;
51616;SDS011;37697;52.588;13.394;2023-05-10T03:44:41;5.70;;;3.70;;
51616;SDS011;37697;52.588;13.394;2023-05-10T03:50:08;7.90;;;4.30;;
51616;SDS011;37697;52.588;13.394;2023-05-10T03:55:34;7.70;;;4.10;;
51616;SDS011;37697;52.588;13.394;2023-05-10T04:01:00;7.80;;;4.50;;
51616;SDS011;37697;52.588;13.394;2023-05-10T04:06:25;6.00;;;4.10;;
51616;SDS011;37697;52.588;13.394;2023-05-10T04:11:51;7.90;;;4.20;;
51616;SDS011;37697;52.588;13.394;2023-05-10T04:17:17;7.10;;;3.50;;
51616;SDS011;37697;52.588;13.394;2023-05-10T04:22:42;7.30;;;3.90;;
51616;SDS011;37697;52.588;13.394;2023-05-10T04:28:08;6.30;;;4.00;;
51616;SDS011;37697;52.588;13.394;2023-05-10T04:33:34;8.10;;;4.10;;
51616;SDS011;37697;52.588;13.394;2023-05-10T04:39:01;10.80;;;4.00;;
51616;SDS011;37697;52.588;13.394;2023-05-10T04:44:28;8.80;;;4.20;;
51616;SDS011;37697;52.588;13.394;2023-05-10T04:49:54;7.40;;;3.90;;
51616;SDS011;37697;52.588;13.394;2023-05-10T04:55:20;7.30;;;3.90;;
51616;SDS011;37697;52.588;13.394;2023-05-10T05:00:46;6.50;;;4.00;;
51616;SDS011;37697;52.588;13.394;2023-05-10T05:06:12;7.40;;;3.60;;
51616;SDS011;37697;52.588;13.394;2023-05-10T05:11:58;7.00;;;3.40;;
51616;SDS011;37697;52.588;13.394;2023-05-10T05:17:24;5.20;;;3.50;;
51616;SDS011;37697;52.588;13.394;2023-05-10T05:22:50;7.80;;;3.20;;
51616;SDS011;37697;52.588;13.394;2023-05-10T05:28:16;9.70;;;3.50;;
51616;SDS011;37697;52.588;13.394;2023-05-10T05:33:42;6.00;;;3.50;;
51616;SDS011;37697;52.588;13.394;2023-05-10T05:39:08;5.60;;;2.80;;
51616;SDS011;37697;52.588;13.394;2023-05-10T05:44:34;8.40;;;2.80;;
51616;SDS011;37697;52.588;13.394;2023-05-10T05:50:00;5.60;;;2.90;;
51616;SDS011;37697;52.588;13.394;2023-05-10T05:55:26;5.60;;;2.60;;
51616;SDS011;37697;52.588;13.394;2023-05-10T06:00:42;6.20;;;2.70;;
51616;SDS011;37697;52.588;13.394;2023-05-10T06:06:08;7.80;;;2.70;;
51616;SDS011;37697;52.588;13.394;2023-05-10T06:11:28;4.40;;;2.40;;
51616;SDS011;37697;52.588;13.394;2023-05-10T06:16:54;4.70;;;2.40;;
51616;SDS011;37697;52.588;13.394;2023-05-10T06:22:20;5.10;;;2.50;;
51616;SDS011;37697;52.588;13.394;2023-05-10T06:27:46;4.90;;;2.30;;
51616;SDS011;37697;52.588;13.394;2023-05-10T06:33:11;4.90;;;2.40;;
51616;SDS011;37697;52.588;13.394;2023-05-10T06:38:37;4.60;;;2.40;;
51616;SDS011;37697;52.588;13.394;2023-05-10T06:44:03;4.30;;;2.10;;
51616;SDS011;37697;52.588;13.394;2023-05-10T06:49:29;3.40;;;2.10;;
51616;SDS011;37697;52.588;13.394;2023-05-10T06:54:55;4.10;;;2.20;;
51616;SDS011;37697;52.588;13.394;2023-05-10T07:00:21;19.20;;;2.90;;
51616;SDS011;37697;52.588;13.394;2023-05-10T07:05:46;7.20;;;2.10;;
51616;SDS011;37697;52.588;13.394;2023-05-10T07:11:24;9.70;;;2.50;;
51616;SDS011;37697;52.588;13.394;2023-05-10T07:16:50;9.40;;;2.60;;
51616;SDS011;37697;52.588;13.394;2023-05-10T07:22:16;4.70;;;2.10;;
51616;SDS011;37697;52.588;13.394;2023-05-10T07:27:42;5.70;;;2.40;;
51616;SDS011;37697;52.588;13.394;2023-05-10T07:33:08;4.60;;;2.50;;
51616;SDS011;37697;52.588;13.394;2023-05-10T07:38:34;9.70;;;2.30;;
51616;SDS011;37697;52.588;13.394;2023-05-10T07:44:00;8.60;;;2.50;;
51616;SDS011;37697;52.588;13.394;2023-05-10T07:49:26;6.00;;;2.40;;
51616;SDS011;37697;52.588;13.394;2023-05-10T07:54:52;8.20;;;2.00;;
51616;SDS011;37697;52.588;13.394;2023-05-10T08:00:18;6.00;;;2.20;;
51616;SDS011;37697;52.588;13.394;2023-05-10T08:05:44;3.80;;;2.30;;
51616;SDS011;37697;52.588;13.394;2023-05-10T08:11:09;4.60;;;2.20;;
51616;SDS011;37697;52.588;13.394;2023-05-10T08:16:38;7.90;;;2.40;;
51616;SDS011;37697;52.588;13.394;2023-05-10T08:22:04;7.30;;;2.80;;
51616;SDS011;37697;52.588;13.394;2023-05-10T08:27:30;5.70;;;2.10;;
51616;SDS011;37697;52.588;13.394;2023-05-10T08:32:56;4.20;;;2.10;;
51616;SDS011;37697;52.588;13.394;2023-05-10T08:38:15;5.40;;;2.00;;
51616;SDS011;37697;52.588;13.394;2023-05-10T08:43:41;14.60;;;3.00;;
51616;SDS011;37697;52.588;13.394;2023-05-10T08:49:09;8.30;;;2.10;;
51616;SDS011;37697;52.588;13.394;2023-05-10T08:54:40;9.50;;;2.10;;
51616;SDS011;37697;52.588;13.394;2023-05-10T08:59:57;12.00;;;2.50;;
51616;SDS011;37697;52.588;13.394;2023-05-10T09:05:23;3.70;;;1.90;;
51616;SDS011;37697;52.588;13.394;2023-05-10T09:10:49;6.40;;;2.10;;
51616;SDS011;37697;52.588;13.394;2023-05-10T09:16:15;12.90;;;2.20;;
51616;SDS011;37697;52.588;13.394;2023-05-10T09:21:41;7.70;;;2.30;;
51616;SDS011;37697;52.588;13.394;2023-05-10T09:27:05;4.10;;;2.20;;
51616;SDS011;37697;52.588;13.394;2023-05-10T09:32:38;4.80;;;2.20;;
51616;SDS011;37697;52.588;13.394;2023-05-10T09:37:55;4.40;;;2.10;;
51616;SDS011;37697;52.588;13.394;2023-05-10T09:43:22;7.40;;;2.00;;
51616;SDS011;37697;52.588;13.394;2023-05-10T09:48:48;5.60;;;2.30;;
51616;SDS011;37697;52.588;13.394;2023-05-10T09:54:14;3.70;;;2.10;;
51616;SDS011;37697;52.588;13.394;2023-05-10T09:59:43;5.80;;;2.00;;
51616;SDS011;37697;52.588;13.394;2023-05-10T10:05:09;5.20;;;2.10;;
51616;SDS011;37697;52.588;13.394;2023-05-10T10:10:38;3.00;;;2.20;;
51616;SDS011;37697;52.588;13.394;2023-05-10T10:16:04;5.90;;;1.70;;
51616;SDS011;37697;52.588;13.394;2023-05-10T10:21:32;8.20;;;1.90;;
51616;SDS011;37697;52.588;13.394;2023-05-10T10:26:59;4.00;;;1.90;;
51616;SDS011;37697;52.588;13.394;2023-05-10T10:32:33;4.20;;;2.00;;
51616;SDS011;37697;52.588;13.394;2023-05-10T10:38:23;5.40;;;1.90;;
51616;SDS011;37697;52.588;13.394;2023-05-10T10:43:49;6.30;;;2.00;;
51616;SDS011;37697;52.588;13.394;2023-05-10T10:49:40;3.90;;;1.90;;
51616;SDS011;37697;52.588;13.394;2023-05-10T10:55:12;2.50;;;1.70;;
51616;SDS011;37697;52.588;13.394;2023-05-10T11:00:41;17.50;;;2.50;;
51616;SDS011;37697;52.588;13.394;2023-05-10T11:06:06;2.60;;;1.70;;
51616;SDS011;37697;52.588;13.394;2023-05-10T11:11:32;8.40;;;2.10;;
51616;SDS011;37697;52.588;13.394;2023-05-10T11:16:59;5.80;;;2.00;;
51616;SDS011;37697;52.588;13.394;2023-05-10T11:22:52;2.70;;;1.80;;
51616;SDS011;37697;52.588;13.394;2023-05-10T11:28:19;5.90;;;2.10;;
51616;SDS011;37697;52.588;13.394;2023-05-10T11:33:45;7.20;;;1.90;;
51616;SDS011;37697;52.588;13.394;2023-05-10T11:39:20;7.70;;;2.00;;
51616;SDS011;37697;52.588;13.394;2023-05-10T11:44:50;9.20;;;2.30;;
51616;SDS011;37697;52.588;13.394;2023-05-10T11:50:16;4.90;;;2.10;;
51616;SDS011;37697;52.588;13.394;2023-05-10T11:55:42;6.00;;;1.90;;
51616;SDS011;37697;52.588;13.394;2023-05-10T12:01:08;3.70;;;2.00;;
51616;SDS011;37697;52.588;13.394;2023-05-10T12:06:37;24.20;;;3.80;;
51616;SDS011;37697;52.588;13.394;2023-05-10T12:12:05;7.00;;;2.20;;
51616;SDS011;37697;52.588;13.394;2023-05-10T12:17:31;6.10;;;1.70;;
51616;SDS011;37697;52.588;13.394;2023-05-10T12:22:58;3.10;;;1.90;;
51616;SDS011;37697;52.588;13.394;2023-05-10T12:28:25;5.40;;;1.90;;
51616;SDS011;37697;52.588;13.394;2023-05-10T12:39:20;5.20;;;2.10;;
51616;SDS011;37697;52.588;13.394;2023-05-10T12:44:47;12.50;;;2.10;;
51616;SDS011;37697;52.588;13.394;2023-05-10T12:50:13;12.20;;;2.20;;
51616;SDS011;37697;52.588;13.394;2023-05-10T12:55:39;5.50;;;1.70;;
51616;SDS011;37697;52.588;13.394;2023-05-10T13:01:05;6.50;;;1.90;;
51616;SDS011;37697;52.588;13.394;2023-05-10T13:06:31;4.80;;;2.10;;
51616;SDS011;37697;52.588;13.394;2023-05-10T13:11:57;5.20;;;1.50;;
51616;SDS011;37697;52.588;13.394;2023-05-10T13:17:24;6.20;;;1.90;;
51616;SDS011;37697;52.588;13.394;2023-05-10T13:22:45;12.30;;;2.30;;
51616;SDS011;37697;52.588;13.394;2023-05-10T13:28:06;6.10;;;1.80;;
51616;SDS011;37697;52.588;13.394;2023-05-10T13:33:32;7.30;;;1.80;;
51616;SDS011;37697;52.588;13.394;2023-05-10T13:38:58;4.20;;;1.80;;
51616;SDS011;37697;52.588;13.394;2023-05-10T13:44:25;5.00;;;1.60;;
51616;SDS011;37697;52.588;13.394;2023-05-10T13:49:51;2.40;;;1.40;;
51616;SDS011;37697;52.588;13.394;2023-05-10T13:55:16;3.60;;;1.70;;
51616;SDS011;37697;52.588;13.394;2023-05-10T14:00:42;3.20;;;1.60;;
51616;SDS011;37697;52.588;13.394;2023-05-10T14:06:08;3.20;;;1.70;;
51616;SDS011;37697;52.588;13.394;2023-05-10T14:11:34;2.80;;;1.70;;
51616;SDS011;37697;52.588;13.394;2023-05-10T14:17:00;5.70;;;1.60;;
51616;SDS011;37697;52.588;13.394;2023-05-10T14:22:27;7.30;;;2.00;;
51616;SDS011;37697;52.588;13.394;2023-05-10T14:27:53;4.00;;;1.80;;
51616;SDS011;37697;52.588;13.394;2023-05-10T14:33:20;4.70;;;1.90;;
51616;SDS011;37697;52.588;13.394;2023-05-10T14:38:46;6.80;;;1.90;;
51616;SDS011;37697;52.588;13.394;2023-05-10T14:44:12;5.00;;;1.80;;
51616;SDS011;37697;52.588;13.394;2023-05-10T14:49:38;4.90;;;2.20;;
51616;SDS011;37697;52.588;13.394;2023-05-10T14:55:04;8.20;;;1.90;;
51616;SDS011;37697;52.588;13.394;2023-05-10T15:00:31;5.00;;;1.70;;
51616;SDS011;37697;52.588;13.394;2023-05-10T15:05:58;6.70;;;2.00;;
51616;SDS011;37697;52.588;13.394;2023-05-10T15:11:23;4.60;;;1.60;;
51616;SDS011;37697;52.588;13.394;2023-05-10T15:16:49;2.80;;;1.60;;
51616;SDS011;37697;52.588;13.394;2023-05-10T15:22:15;4.90;;;1.80;;
51616;SDS011;37697;52.588;13.394;2023-05-10T15:27:41;4.10;;;1.50;;
51616;SDS011;37697;52.588;13.394;2023-05-10T15:33:07;4.20;;;1.70;;
51616;SDS011;37697;52.588;13.394;2023-05-10T15:38:32;6.10;;;1.70;;
51616;SDS011;37697;52.588;13.394;2023-05-10T15:43:58;4.50;;;1.70;;
51616;SDS011;37697;52.588;13.394;2023-05-10T15:49:24;3.60;;;1.60;;
51616;SDS011;37697;52.588;13.394;2023-05-10T15:54:50;4.80;;;1.80;;
51616;SDS011;37697;52.588;13.394;2023-05-10T16:00:16;4.90;;;1.80;;
51616;SDS011;37697;52.588;13.394;2023-05-10T16:05:43;6.20;;;1.90;;
51616;SDS011;37697;52.588;13.394;2023-05-10T16:11:09;5.30;;;1.70;;
51616;SDS011;37697;52.588;13.394;2023-05-10T16:16:35;4.90;;;1.70;;
51616;SDS011;37697;52.588;13.394;2023-05-10T16:22:01;4.40;;;1.80;;
51616;SDS011;37697;52.588;13.394;2023-05-10T16:27:27;4.00;;;1.80;;
51616;SDS011;37697;52.588;13.394;2023-05-10T16:32:53;3.20;;;1.90;;
51616;SDS011;37697;52.588;13.394;2023-05-10T16:38:09;3.30;;;1.90;;
51616;SDS011;37697;52.588;13.394;2023-05-10T16:43:35;4.80;;;1.80;;
51616;SDS011;37697;52.588;13.394;2023-05-10T16:49:01;5.00;;;2.00;;
51616;SDS011;37697;52.588;13.394;2023-05-10T16:54:30;6.40;;;2.40;;
51616;SDS011;37697;52.588;13.394;2023-05-10T16:59:48;8.70;;;3.00;;
51616;SDS011;37697;52.588;13.394;2023-05-10T17:05:17;7.20;;;3.30;;
51616;SDS011;37697;52.588;13.394;2023-05-10T17:10:43;6.50;;;3.90;;
51616;SDS011;37697;52.588;13.394;2023-05-10T17:16:09;7.50;;;3.50;;
51616;SDS011;37697;52.588;13.394;2023-05-10T17:21:35;6.40;;;3.80;;
51616;SDS011;37697;52.588;13.394;2023-05-10T17:27:01;9.90;;;3.90;;
51616;SDS011;37697;52.588;13.394;2023-05-10T17:32:27;5.70;;;3.70;;
51616;SDS011;37697;52.588;13.394;2023-05-10T17:37:53;8.70;;;3.70;;
51616;SDS011;37697;52.588;13.394;2023-05-10T17:43:19;6.20;;;3.70;;
51616;SDS011;37697;52.588;13.394;2023-05-10T17:48:46;5.20;;;3.50;;
51616;SDS011;37697;52.588;13.394;2023-05-10T17:54:11;4.90;;;3.40;;
51616;SDS011;37697;52.588;13.394;2023-05-10T17:59:37;6.70;;;3.90;;
51616;SDS011;37697;52.588;13.394;2023-05-10T18:05:03;7.50;;;3.70;;
51616;SDS011;37697;52.588;13.394;2023-05-10T18:10:31;6.50;;;3.60;;
51616;SDS011;37697;52.588;13.394;2023-05-10T18:15:56;4.20;;;3.20;;
51616;SDS011;37697;52.588;13.394;2023-05-10T18:21:16;6.20;;;3.40;;
51616;SDS011;37697;52.588;13.394;2023-05-10T18:26:32;5.10;;;3.70;;
51616;SDS011;37697;52.588;13.394;2023-05-10T18:31:58;6.50;;;3.30;;
51616;SDS011;37697;52.588;13.394;2023-05-10T18:37:24;4.40;;;3.30;;
51616;SDS011;37697;52.588;13.394;2023-05-10T18:42:50;6.10;;;3.50;;
51616;SDS011;37697;52.588;13.394;2023-05-10T18:48:16;5.00;;;3.30;;
51616;SDS011;37697;52.588;13.394;2023-05-10T18:53:42;5.10;;;3.10;;
51616;SDS011;37697;52.588;13.394;2023-05-10T18:59:08;6.20;;;3.90;;
51616;SDS011;37697;52.588;13.394;2023-05-10T19:04:35;5.50;;;3.90;;
51616;SDS011;37697;52.588;13.394;2023-05-10T19:10:01;4.90;;;3.70;;
51616;SDS011;37697;52.588;13.394;2023-05-10T19:15:27;6.00;;;4.10;;
51616;SDS011;37697;52.588;13.394;2023-05-10T19:20:54;4.90;;;4.10;;
51616;SDS011;37697;52.588;13.394;2023-05-10T19:26:20;10.30;;;5.20;;
51616;SDS011;37697;52.588;13.394;2023-05-10T19:31:46;6.40;;;5.70;;
51616;SDS011;37697;52.588;13.394;2023-05-10T19:37:12;7.10;;;5.50;;
51616;SDS011;37697;52.588;13.394;2023-05-10T19:42:38;7.70;;;5.60;;
51616;SDS011;37697;52.588;13.394;2023-05-10T19:48:04;8.70;;;5.70;;
51616;SDS011;37697;52.588;13.394;2023-05-10T19:53:30;7.30;;;5.60;;
51616;SDS011;37697;52.588;13.394;2023-05-10T19:58:56;8.10;;;5.10;;
51616;SDS011;37697;52.588;13.394;2023-05-10T20:04:13;7.50;;;5.10;;
51616;SDS011;37697;52.588;13.394;2023-05-10T20:09:38;5.70;;;5.10;;
51616;SDS011;37697;52.588;13.394;2023-05-10T20:15:06;5.90;;;4.90;;
51616;SDS011;37697;52.588;13.394;2023-05-10T20:20:32;6.90;;;5.20;;
51616;SDS011;37697;52.588;13.394;2023-05-10T20:25:59;8.50;;;5.40;;
51616;SDS011;37697;52.588;13.394;2023-05-10T20:31:25;7.20;;;5.60;;
51616;SDS011;37697;52.588;13.394;2023-05-10T20:36:50;13.60;;;6.20;;
51616;SDS011;37697;52.588;13.394;2023-05-10T20:42:15;7.70;;;5.70;;
51616;SDS011;37697;52.588;13.394;2023-05-10T20:47:41;8.30;;;6.20;;
51616;SDS011;37697;52.588;13.394;2023-05-10T20:53:07;9.90;;;6.90;;
51616;SDS011;37697;52.588;13.394;2023-05-10T20:58:33;9.50;;;7.00;;
51616;SDS011;37697;52.588;13.394;2023-05-10T21:03:59;10.80;;;7.70;;
51616;SDS011;37697;52.588;13.394;2023-05-10T21:09:17;8.90;;;7.60;;
51616;SDS011;37697;52.588;13.394;2023-05-10T21:14:43;10.50;;;6.90;;
51616;SDS011;37697;52.588;13.394;2023-05-10T21:20:10;9.10;;;7.50;;
51616;SDS011;37697;52.588;13.394;2023-05-10T21:25:37;9.40;;;7.30;;
51616;SDS011;37697;52.588;13.394;2023-05-10T21:31:03;12.40;;;8.70;;
51616;SDS011;37697;52.588;13.394;2023-05-10T21:36:29;9.30;;;7.40;;
51616;SDS011;37697;52.588;13.394;2023-05-10T21:41:54;10.60;;;7.00;;
51616;SDS011;37697;52.588;13.394;2023-05-10T21:47:20;10.40;;;7.20;;
51616;SDS011;37697;52.588;13.394;2023-05-10T21:52:46;7.80;;;7.00;;
51616;SDS011;37697;52.588;13.394;2023-05-10T21:58:12;8.10;;;6.80;;
51616;SDS011;37697;52.588;13.394;2023-05-10T22:03:38;7.70;;;6.90;;
51616;SDS011;37697;52.588;13.394;2023-05-10T22:09:04;9.30;;;6.50;;
51616;SDS011;37697;52.588;13.394;2023-05-10T22:14:30;8.60;;;7.10;;
51616;SDS011;37697;52.588;13.394;2023-05-10T22:20:12;9.90;;;7.10;;
51616;SDS011;37697;52.588;13.394;2023-05-10T22:25:38;8.60;;;7.20;;
51616;SDS011;37697;52.588;13.394;2023-05-10T22:31:08;8.40;;;6.50;;
51616;SDS011;37697;52.588;13.394;2023-05-10T22:36:35;10.70;;;7.30;;
51616;SDS011;37697;52.588;13.394;2023-05-10T22:42:00;8.80;;;6.80;;
51616;SDS011;37697;52.588;13.394;2023-05-10T22:47:26;8.80;;;6.90;;
51616;SDS011;37697;52.588;13.394;2023-05-10T22:52:52;7.70;;;6.50;;
51616;SDS011;37697;52.588;13.394;2023-05-10T22:58:18;8.30;;;6.90;;
51616;SDS011;37697;52.588;13.394;2023-05-10T23:03:44;8.20;;;6.60;;
51616;SDS011;37697;52.588;13.394;2023-05-10T23:09:10;11.10;;;7.10;;
51616;SDS011;37697;52.588;13.394;2023-05-10T23:14:36;9.30;;;7.50;;
51616;SDS011;37697;52.588;13.394;2023-05-10T23:20:01;10.10;;;6.60;;
51616;SDS011;37697;52.588;13.394;2023-05-10T23:25:28;9.90;;;7.10;;
51616;SDS011;37697;52.588;13.394;2023-05-10T23:30:54;8.10;;;6.60;;
51616;SDS011;37697;52.588;13.394;2023-05-10T23:36:21;8.80;;;7.50;;
51616;SDS011;37697;52.588;13.394;2023-05-10T23:41:47;9.50;;;7.30;;
51616;SDS011;37697;52.588;13.394;2023-05-10T23:47:04;7.90;;;6.60;;
51616;SDS011;37697;52.588;13.394;2023-05-10T23:52:30;8.50;;;7.00;;
51616;SDS011;37697;52.588;13.394;2023-05-10T23:57:56;8.60;;;6.80;;
